Time;durP1;ratioP1;P1;durP2;ratioP2;P2;SDS_P1;SDS_P2;PMS_P1;PMS_P2;Temp;Humidity;BMP_temperature;BMP_pressure;BME280_temperature;BME280_humidity;BME280_pressure;Samples;Min_cycle;Max_cycle;Signal;HPM_P1;HPM_P2
2022/09/24 00:01:19;;;;;;;19.60;11.85;;;12.80;99.90;;;;;;5123899;28;20115;-71
2022/09/24 00:03:50;;;;;;;23.30;13.40;;;12.80;99.90;;;;;;5124119;28;20114;-68
2022/09/24 00:06:20;;;;;;;27.98;13.07;;;12.80;99.90;;;;;;5124063;28;20031;-70
2022/09/24 00:08:47;;;;;;;23.60;12.65;;;12.80;99.90;;;;;;5123922;28;20031;-68
2022/09/24 00:11:13;;;;;;;23.38;12.02;;;12.80;99.90;;;;;;5122922;28;20024;-70
2022/09/24 00:13:40;;;;;;;23.17;13.48;;;12.70;99.90;;;;;;5124732;27;20020;-70
2022/09/24 00:16:12;;;;;;;20.00;12.40;;;12.80;99.90;;;;;;5124143;28;20035;-71
2022/09/24 00:18:38;;;;;;;24.55;13.10;;;12.70;99.90;;;;;;5123540;28;20033;-71
2022/09/24 00:21:14;;;;;;;22.33;11.93;;;12.70;99.90;;;;;;5123561;28;20028;-71
2022/09/24 00:23:40;;;;;;;26.88;13.27;;;12.70;99.90;;;;;;5123604;28;20040;-71
2022/09/24 00:28:51;;;;;;;26.77;13.65;;;12.70;99.90;;;;;;5123840;28;20702;-70
2022/09/24 00:31:17;;;;;;;24.23;13.40;;;12.70;99.90;;;;;;5123386;28;20028;-68
2022/09/24 00:33:43;;;;;;;27.80;14.15;;;12.70;99.90;;;;;;5124049;28;20019;-68
2022/09/24 00:36:08;;;;;;;23.92;13.20;;;12.60;99.90;;;;;;5122769;28;20038;-70
2022/09/24 00:38:35;;;;;;;32.38;15.25;;;12.60;99.90;;;;;;5122835;28;20031;-71
2022/09/24 00:41:01;;;;;;;23.17;14.27;;;12.60;99.90;;;;;;5123929;28;20023;-69
2022/09/24 00:43:36;;;;;;;30.00;15.52;;;12.60;99.90;;;;;;5123581;28;20043;-69
2022/09/24 00:46:17;;;;;;;32.63;15.73;;;12.60;99.90;;;;;;5122815;28;20491;-72
2022/09/24 00:48:45;;;;;;;31.15;14.32;;;12.50;99.90;;;;;;5123140;28;20059;-68
2022/09/24 00:51:15;;;;;;;30.80;14.82;;;12.50;99.90;;;;;;5122779;28;20024;-69
2022/09/24 00:53:44;;;;;;;36.65;16.17;;;12.50;99.90;;;;;;5122753;28;20062;-70
2022/09/24 00:56:14;;;;;;;29.45;14.98;;;12.50;99.90;;;;;;5122595;28;20106;-68
2022/09/24 00:58:42;;;;;;;38.65;16.70;;;12.50;99.90;;;;;;5122823;28;20451;-70
2022/09/24 01:01:08;;;;;;;28.45;14.80;;;12.50;99.90;;;;;;5122365;28;20015;-69
2022/09/24 01:03:39;;;;;;;33.70;17.05;;;12.50;99.90;;;;;;5123063;28;20047;-70
2022/09/24 01:06:08;;;;;;;29.75;16.35;;;12.50;99.90;;;;;;5122700;28;20023;-72
2022/09/24 01:08:34;;;;;;;28.92;16.67;;;12.50;99.90;;;;;;5122968;28;20083;-71
2022/09/24 01:11:25;;;;;;;41.30;17.60;;;12.50;99.90;;;;;;5123261;28;20024;-69
2022/09/24 01:14:18;;;;;;;29.25;16.23;;;12.50;99.90;;;;;;5122646;28;21148;-70
2022/09/24 01:16:59;;;;;;;30.48;17.20;;;12.50;99.90;;;;;;5121450;28;20032;-69
2022/09/24 01:19:37;;;;;;;31.10;17.50;;;12.50;99.90;;;;;;5122684;28;20056;-70
2022/09/24 01:22:14;;;;;;;32.97;17.15;;;12.50;99.90;;;;;;5121903;28;20038;-72
2022/09/24 01:25:12;;;;;;;36.00;17.98;;;12.50;99.90;;;;;;5122368;28;20539;-73
2022/09/24 01:28:12;;;;;;;33.90;18.02;;;12.50;99.90;;;;;;5122087;28;20431;-68
2022/09/24 01:30:40;;;;;;;38.33;19.52;;;12.50;99.90;;;;;;5122606;28;20356;-69
2022/09/24 01:33:15;;;;;;;37.05;17.48;;;12.50;99.90;;;;;;5122347;28;20046;-68
2022/09/24 01:35:52;;;;;;;32.50;18.10;;;12.40;99.90;;;;;;5121795;28;20059;-67
2022/09/24 01:38:23;;;;;;;37.67;18.02;;;12.40;99.90;;;;;;5121893;28;20697;-68
2022/09/24 01:40:50;;;;;;;34.05;18.30;;;12.50;99.90;;;;;;5121748;28;20046;-68
2022/09/24 01:43:21;;;;;;;35.97;18.60;;;12.40;99.90;;;;;;5122251;28;20062;-69
2022/09/24 01:45:47;;;;;;;37.67;19.58;;;12.40;99.90;;;;;;5121782;28;20030;-68
2022/09/24 01:48:13;;;;;;;39.47;19.58;;;12.40;99.90;;;;;;5122475;28;20031;-69
2022/09/24 01:51:01;;;;;;;37.22;18.80;;;12.40;99.90;;;;;;5121738;28;20027;-70
2022/09/24 01:53:42;;;;;;;38.05;18.38;;;12.40;99.90;;;;;;5121893;28;20028;-70
2022/09/24 01:56:15;;;;;;;39.72;19.48;;;12.40;99.90;;;;;;5121976;28;20039;-70
2022/09/24 01:58:54;;;;;;;42.88;21.52;;;12.40;99.90;;;;;;5122144;28;20016;-69
2022/09/24 02:01:27;;;;;;;41.70;21.52;;;12.40;99.90;;;;;;5121550;28;20077;-68
2022/09/24 02:03:59;;;;;;;40.20;20.87;;;12.30;99.90;;;;;;5120722;28;20099;-69
2022/09/24 02:06:43;;;;;;;42.17;21.48;;;12.30;99.90;;;;;;5121742;28;20016;-69
2022/09/24 02:09:29;;;;;;;41.35;21.77;;;12.30;99.90;;;;;;5121405;28;20020;-70
2022/09/24 02:11:57;;;;;;;40.47;20.98;;;12.30;99.90;;;;;;5122193;28;20016;-68
2022/09/24 02:14:24;;;;;;;42.97;21.33;;;12.30;99.90;;;;;;5121538;28;20035;-70
2022/09/24 02:16:50;;;;;;;39.42;21.58;;;12.20;99.90;;;;;;5120886;28;20086;-70
2022/09/24 02:19:24;;;;;;;41.63;21.27;;;12.30;99.90;;;;;;5121908;28;20024;-69
2022/09/24 02:21:50;;;;;;;42.93;21.37;;;12.30;99.90;;;;;;5121792;28;20020;-69
2022/09/24 02:24:21;;;;;;;43.05;22.35;;;12.20;99.90;;;;;;5121075;28;20038;-70
2022/09/24 02:26:47;;;;;;;38.45;20.98;;;12.20;99.90;;;;;;5121349;28;20027;-70
2022/09/24 02:29:13;;;;;;;46.63;23.05;;;12.20;99.90;;;;;;5121162;28;20035;-71
2022/09/24 02:31:44;;;;;;;45.95;21.17;;;12.20;99.90;;;;;;5121647;28;20031;-69
2022/09/24 02:34:20;;;;;;;49.40;22.13;;;12.20;99.90;;;;;;5121560;28;20027;-70
2022/09/24 02:36:54;;;;;;;48.05;22.80;;;12.20;99.90;;;;;;5120867;28;20478;-70
2022/09/24 02:39:20;;;;;;;42.22;21.10;;;12.20;99.90;;;;;;5121110;28;20051;-71
2022/09/24 02:41:48;;;;;;;39.97;21.35;;;12.20;99.90;;;;;;5121156;28;20039;-69
2022/09/24 02:44:16;;;;;;;46.03;22.10;;;12.20;99.90;;;;;;5120835;28;20040;-68
2022/09/24 02:46:45;;;;;;;40.00;21.48;;;12.20;99.90;;;;;;5121192;28;20027;-69
2022/09/24 02:49:13;;;;;;;44.20;21.10;;;12.20;99.90;;;;;;5121235;28;20039;-68
2022/09/24 02:51:40;;;;;;;39.20;20.63;;;12.20;99.90;;;;;;5120760;28;20024;-70
2022/09/24 02:54:06;;;;;;;47.08;22.45;;;12.20;99.90;;;;;;5120827;28;20352;-71
2022/09/24 02:56:34;;;;;;;46.53;21.80;;;12.20;99.90;;;;;;5121600;28;20460;-70
2022/09/24 02:59:03;;;;;;;48.42;21.38;;;12.20;99.90;;;;;;5121186;28;20028;-70
2022/09/24 03:01:30;;;;;;;44.70;21.45;;;12.20;99.90;;;;;;5120773;28;20028;-70
2022/09/24 03:03:56;;;;;;;44.60;21.30;;;12.20;99.90;;;;;;5120973;28;20054;-70
2022/09/24 03:06:22;;;;;;;48.15;23.33;;;12.10;99.90;;;;;;5120308;28;20426;-69
2022/09/24 03:08:47;;;;;;;49.10;21.85;;;12.20;99.90;;;;;;5121393;28;20111;-70
2022/09/24 03:11:13;;;;;;;48.63;22.50;;;12.10;99.90;;;;;;5121050;28;20040;-70
2022/09/24 03:13:39;;;;;;;46.03;21.95;;;12.10;99.90;;;;;;5120988;28;20028;-70
2022/09/24 03:16:05;;;;;;;46.20;22.58;;;12.10;99.90;;;;;;5120737;28;20031;-72
2022/09/24 03:18:32;;;;;;;43.65;22.02;;;12.10;99.90;;;;;;5120862;28;20131;-71
2022/09/24 03:21:01;;;;;;;44.47;23.45;;;12.10;99.90;;;;;;5120694;28;20062;-72
2022/09/24 03:23:27;;;;;;;49.38;23.38;;;12.10;99.90;;;;;;5120990;28;20429;-71
2022/09/24 03:25:53;;;;;;;45.78;23.08;;;12.10;99.90;;;;;;5121000;28;20027;-69
2022/09/24 03:28:19;;;;;;;51.20;23.17;;;12.10;99.90;;;;;;5121121;28;20043;-73
2022/09/24 03:31:00;;;;;;;43.35;21.95;;;12.10;99.90;;;;;;5120574;28;20016;-72
2022/09/24 03:33:36;;;;;;;40.88;21.73;;;12.10;99.90;;;;;;5120611;28;20023;-72
2022/09/24 03:36:15;;;;;;;44.60;21.80;;;12.10;99.90;;;;;;5120632;28;20032;-71
2022/09/24 03:38:41;;;;;;;41.05;22.10;;;12.10;99.90;;;;;;5120377;28;20023;-73
2022/09/24 03:41:08;;;;;;;48.20;22.80;;;12.10;99.90;;;;;;5120702;28;20024;-74
2022/09/24 03:43:34;;;;;;;39.38;21.90;;;12.10;99.90;;;;;;5120587;28;20044;-73
2022/09/24 03:46:01;;;;;;;45.08;22.45;;;12.10;99.90;;;;;;5122013;28;20043;-74
2022/09/24 03:48:28;;;;;;;46.33;22.65;;;12.10;99.90;;;;;;5124036;28;20038;-73
2022/09/24 03:50:54;;;;;;;38.15;20.63;;;12.10;99.90;;;;;;5124628;28;20007;-73
2022/09/24 03:53:20;;;;;;;42.17;21.55;;;12.10;99.90;;;;;;5124178;28;20162;-75
2022/09/24 03:55:51;;;;;;;40.10;20.58;;;12.10;99.90;;;;;;5124514;28;20038;-72
2022/09/24 03:58:17;;;;;;;35.88;19.70;;;12.10;99.90;;;;;;5124506;28;20448;-72
2022/09/24 04:00:43;;;;;;;37.90;18.88;;;12.10;99.90;;;;;;5124107;28;20498;-73
2022/09/24 04:03:09;;;;;;;39.45;19.10;;;12.10;99.90;;;;;;5124070;28;20036;-74
2022/09/24 04:05:35;;;;;;;45.08;20.13;;;12.10;99.90;;;;;;5124610;28;20038;-74
2022/09/24 04:08:04;;;;;;;35.85;18.73;;;12.10;99.90;;;;;;5123764;28;20015;-74
2022/09/24 04:10:31;;;;;;;40.33;19.58;;;12.10;99.90;;;;;;5124248;28;20039;-74
2022/09/24 04:12:57;;;;;;;37.33;18.75;;;12.10;99.90;;;;;;5124248;28;20027;-74
2022/09/24 04:15:23;;;;;;;33.08;17.63;;;12.10;99.90;;;;;;5122853;28;20043;-75
2022/09/24 04:17:52;;;;;;;39.55;19.45;;;12.10;99.90;;;;;;5124337;28;20031;-73
2022/09/24 04:20:22;;;;;;;35.92;18.48;;;12.10;99.90;;;;;;5122284;28;20023;-73
2022/09/24 04:22:49;;;;;;;38.50;18.15;;;12.10;99.90;;;;;;5123802;28;20036;-72
2022/09/24 04:25:15;;;;;;;33.08;16.88;;;12.10;99.90;;;;;;5121525;28;20026;-73
2022/09/24 04:27:41;;;;;;;36.33;18.33;;;12.00;99.90;;;;;;5123096;28;20032;-73
2022/09/24 04:30:08;;;;;;;32.03;18.05;;;12.00;99.90;;;;;;5123349;28;20076;-75
2022/09/24 04:32:33;;;;;;;33.53;17.77;;;12.00;99.90;;;;;;5123339;28;20356;-75
2022/09/24 04:34:59;;;;;;;32.42;17.17;;;12.00;99.90;;;;;;5123780;28;20031;-73
2022/09/24 04:37:25;;;;;;;35.58;16.50;;;12.00;99.90;;;;;;5123430;28;20035;-73
2022/09/24 04:39:51;;;;;;;33.70;16.23;;;12.00;99.90;;;;;;5121664;28;20028;-70
2022/09/24 04:42:17;;;;;;;32.28;17.08;;;12.00;99.90;;;;;;5121956;28;20040;-73
2022/09/24 04:44:45;;;;;;;34.35;16.17;;;12.00;99.90;;;;;;5123366;28;20039;-74
2022/09/24 04:47:13;;;;;;;33.10;15.70;;;12.00;99.90;;;;;;5123493;28;20012;-73
2022/09/24 04:49:38;;;;;;;31.33;17.05;;;12.00;99.90;;;;;;5122882;28;20061;-74
2022/09/24 04:52:04;;;;;;;29.85;15.00;;;12.00;99.90;;;;;;5123410;28;20409;-72
2022/09/24 04:54:31;;;;;;;33.92;16.08;;;12.00;99.90;;;;;;5122044;28;20030;-75
2022/09/24 04:56:57;;;;;;;32.15;16.17;;;12.00;99.90;;;;;;5122354;28;20023;-74
2022/09/24 04:59:22;;;;;;;31.23;16.27;;;12.00;99.90;;;;;;5122149;28;20050;-73
2022/09/24 05:01:48;;;;;;;37.72;17.48;;;12.00;99.90;;;;;;5120721;28;20023;-74
2022/09/24 05:04:14;;;;;;;35.40;17.33;;;11.80;99.90;;;;;;5122583;28;20027;-73
2022/09/24 05:06:39;;;;;;;30.17;15.98;;;12.00;99.90;;;;;;5122864;28;20358;-75
2022/09/24 05:09:05;;;;;;;36.63;18.20;;;12.00;99.90;;;;;;5122801;28;20073;-75
2022/09/24 05:11:31;;;;;;;38.15;18.48;;;12.00;99.90;;;;;;5122740;28;20024;-74
2022/09/24 05:13:56;;;;;;;35.30;16.77;;;11.90;99.90;;;;;;5122160;28;20091;-72
2022/09/24 05:16:22;;;;;;;40.72;18.33;;;11.90;99.90;;;;;;5119606;28;20053;-74
2022/09/24 05:18:47;;;;;;;37.90;18.75;;;11.90;99.90;;;;;;5121007;27;20031;-72
2022/09/24 05:21:13;;;;;;;35.33;19.17;;;11.90;99.90;;;;;;5122967;28;20019;-73
2022/09/24 05:23:39;;;;;;;39.17;18.08;;;11.90;99.90;;;;;;5122918;28;20084;-72
2022/09/24 05:28:48;;;;;;;36.92;18.58;;;11.90;99.90;;;;;;5121663;28;20749;-72
2022/09/24 05:31:14;;;;;;;45.72;20.20;;;11.90;99.90;;;;;;5122633;28;20048;-72
2022/09/24 05:33:40;;;;;;;37.50;19.33;;;11.90;99.90;;;;;;5122389;28;20023;-71
2022/09/24 05:36:05;;;;;;;41.13;20.05;;;11.90;99.90;;;;;;5122105;28;20768;-70
2022/09/24 05:38:31;;;;;;;37.40;21.10;;;11.90;99.90;;;;;;5122394;28;20028;-72
2022/09/24 05:40:57;;;;;;;43.15;21.13;;;11.90;99.90;;;;;;5122827;28;20111;-71
2022/09/24 05:43:26;;;;;;;43.15;20.83;;;11.90;99.90;;;;;;5122276;28;20559;-72
2022/09/24 05:45:53;;;;;;;39.22;21.13;;;12.00;99.90;;;;;;5121905;28;20038;-71
2022/09/24 05:48:19;;;;;;;43.53;20.55;;;11.90;99.90;;;;;;5120236;28;20027;-71
2022/09/24 05:50:45;;;;;;;46.03;22.65;;;11.90;99.90;;;;;;5121644;28;20088;-73
2022/09/24 05:53:11;;;;;;;44.05;21.25;;;12.00;99.90;;;;;;5122191;28;20027;-73
2022/09/24 05:55:38;;;;;;;45.17;20.75;;;12.00;99.90;;;;;;5118707;28;20031;-71
2022/09/24 05:58:06;;;;;;;42.90;22.38;;;12.00;99.90;;;;;;5118111;28;20028;-73
2022/09/24 06:00:34;;;;;;;48.75;21.58;;;12.00;99.90;;;;;;5119963;27;20024;-74
2022/09/24 06:03:06;;;;;;;49.80;22.02;;;12.00;99.90;;;;;;5122284;28;20044;-73
2022/09/24 06:05:33;;;;;;;47.78;22.75;;;12.00;99.90;;;;;;5121540;28;20023;-73
2022/09/24 06:08:00;;;;;;;42.97;22.45;;;12.00;99.90;;;;;;5120038;28;20020;-72
2022/09/24 06:10:25;;;;;;;58.03;23.58;;;12.00;99.90;;;;;;5122109;28;20020;-72
2022/09/24 06:12:52;;;;;;;41.58;22.10;;;12.00;99.90;;;;;;5121821;28;20020;-75
2022/09/24 06:15:19;;;;;;;49.35;23.50;;;12.00;99.90;;;;;;5113726;28;20038;-74
2022/09/24 06:17:45;;;;;;;55.17;24.25;;;12.00;99.90;;;;;;5110787;28;20008;-74
2022/09/24 06:20:12;;;;;;;57.63;25.38;;;12.10;99.90;;;;;;5119189;28;20032;-76
2022/09/24 06:22:38;;;;;;;52.08;24.08;;;12.00;99.90;;;;;;5118773;28;20038;-74
2022/09/24 06:25:05;;;;;;;53.03;23.00;;;12.10;99.90;;;;;;5121690;28;20104;-74
2022/09/24 06:27:31;;;;;;;48.78;24.23;;;12.00;99.90;;;;;;5121216;28;20020;-75
2022/09/24 06:29:56;;;;;;;49.65;24.25;;;12.10;99.90;;;;;;5120417;28;20055;-75
2022/09/24 06:32:23;;;;;;;52.45;24.27;;;12.10;99.90;;;;;;5116200;28;20035;-75
2022/09/24 06:34:49;;;;;;;48.42;22.90;;;12.10;99.90;;;;;;5119187;28;20023;-75
2022/09/24 06:37:14;;;;;;;49.97;24.33;;;12.10;99.90;;;;;;5120502;28;20023;-76
2022/09/24 06:39:40;;;;;;;47.53;24.52;;;12.10;99.90;;;;;;5119370;28;20053;-79
2022/09/24 06:42:06;;;;;;;55.97;24.77;;;12.20;99.90;;;;;;5119691;28;20048;-78
2022/09/24 06:44:33;;;;;;;51.80;26.33;;;12.10;99.90;;;;;;5119125;28;21298;-76
2022/09/24 06:47:00;;;;;;;54.83;26.13;;;12.20;99.90;;;;;;5120318;28;20046;-76
2022/09/24 06:49:26;;;;;;;49.95;24.45;;;12.30;99.90;;;;;;5121445;28;20168;-75
2022/09/24 06:51:55;;;;;;;62.30;25.95;;;12.10;99.90;;;;;;5119534;28;20487;-75
2022/09/24 06:54:21;;;;;;;56.53;27.75;;;12.20;99.90;;;;;;5120706;28;20055;-74
2022/09/24 06:56:47;;;;;;;53.28;25.00;;;12.20;99.90;;;;;;5121231;28;20027;-76
2022/09/24 06:59:13;;;;;;;53.40;25.63;;;12.20;99.90;;;;;;5120690;28;20069;-75
2022/09/24 07:01:38;;;;;;;50.40;26.15;;;12.10;99.90;;;;;;5120888;28;20468;-77
2022/09/24 07:04:04;;;;;;;59.17;26.80;;;12.20;99.90;;;;;;5121324;28;20068;-76
2022/09/24 07:07:28;;;;;;;61.47;25.58;;;12.20;99.90;;;;;;5120677;28;20023;-75
2022/09/24 07:09:15;;;;;;;58.58;26.98;;;12.30;99.90;;;;;;5120702;27;20393;-74
2022/09/24 07:11:42;;;;;;;63.45;26.55;;;12.30;99.90;;;;;;5120986;28;20103;-73
2022/09/24 07:14:08;;;;;;;62.92;26.17;;;12.40;99.90;;;;;;5119097;28;20073;-74
2022/09/24 07:16:33;;;;;;;65.15;27.20;;;12.30;99.90;;;;;;5120937;28;20019;-74
2022/09/24 07:18:59;;;;;;;62.40;25.70;;;12.40;99.90;;;;;;5121415;28;20130;-73
2022/09/24 07:21:25;;;;;;;50.63;24.80;;;12.40;99.90;;;;;;5117862;28;20407;-75
2022/09/24 07:23:50;;;;;;;57.53;26.48;;;12.40;99.90;;;;;;5123401;28;20027;-73
2022/09/24 07:26:17;;;;;;;52.78;26.73;;;12.40;99.90;;;;;;5124109;28;20125;-73
2022/09/24 07:28:42;;;;;;;49.63;24.63;;;12.40;99.90;;;;;;5121454;28;20073;-77
2022/09/24 07:31:08;;;;;;;59.90;25.65;;;12.40;99.90;;;;;;5123932;28;20019;-75
2022/09/24 07:33:34;;;;;;;53.42;26.58;;;12.40;99.90;;;;;;5124103;28;20034;-74
2022/09/24 07:36:05;;;;;;;61.45;29.10;;;12.60;99.90;;;;;;5121176;28;20043;-75
2022/09/24 07:38:31;;;;;;;56.20;26.83;;;12.50;99.90;;;;;;5120136;28;20047;-74
2022/09/24 07:40:57;;;;;;;60.30;27.08;;;12.50;99.90;;;;;;5121225;28;20034;-73
2022/09/24 07:43:23;;;;;;;58.03;27.30;;;12.50;99.90;;;;;;5122568;28;20049;-73
2022/09/24 07:45:49;;;;;;;58.28;27.20;;;12.60;99.90;;;;;;5124992;28;20034;-74
2022/09/24 07:48:14;;;;;;;59.60;28.73;;;12.50;99.90;;;;;;5121535;27;20036;-74
2022/09/24 07:50:41;;;;;;;59.20;27.10;;;12.60;99.90;;;;;;5124880;28;20024;-74
2022/09/24 07:53:11;;;;;;;58.50;27.67;;;12.60;99.90;;;;;;5121826;28;20030;-73
2022/09/24 07:55:39;;;;;;;63.25;29.75;;;12.60;99.90;;;;;;5123986;28;20020;-73
2022/09/24 07:58:10;;;;;;;55.90;28.95;;;12.60;99.90;;;;;;5121186;28;20463;-72
2022/09/24 08:00:36;;;;;;;51.15;25.38;;;12.60;99.90;;;;;;5124136;28;20030;-73
2022/09/24 08:03:03;;;;;;;62.38;29.08;;;12.60;99.90;;;;;;5122970;28;20032;-72
2022/09/24 08:05:29;;;;;;;66.78;30.10;;;12.60;99.90;;;;;;5124601;28;20127;-72
2022/09/24 08:07:56;;;;;;;64.07;28.95;;;12.60;99.90;;;;;;5123239;28;20023;-74
2022/09/24 08:10:23;;;;;;;58.05;28.63;;;12.60;99.90;;;;;;5120340;28;20035;-72
2022/09/24 08:12:49;;;;;;;69.47;31.40;;;12.60;99.90;;;;;;5121638;28;20036;-73
2022/09/24 08:15:15;;;;;;;63.72;29.30;;;12.70;99.90;;;;;;5122704;28;20032;-74
2022/09/24 08:17:41;;;;;;;59.55;28.33;;;12.70;99.90;;;;;;5122813;28;20049;-74
2022/09/24 08:20:07;;;;;;;70.55;31.67;;;12.70;99.90;;;;;;5123191;28;20042;-73
2022/09/24 08:22:33;;;;;;;62.42;28.23;;;12.70;99.90;;;;;;5117906;28;20028;-74
2022/09/24 08:24:59;;;;;;;64.25;29.95;;;12.70;99.90;;;;;;5124234;28;20079;-74
2022/09/24 08:27:25;;;;;;;64.13;31.35;;;12.70;99.90;;;;;;5119258;28;20403;-73
2022/09/24 08:29:51;;;;;;;57.15;28.15;;;12.80;99.90;;;;;;5123326;28;20028;-73
2022/09/24 08:32:17;;;;;;;70.90;30.55;;;12.80;99.90;;;;;;5117896;28;20061;-73
2022/09/24 08:34:44;;;;;;;59.08;28.90;;;12.90;99.90;;;;;;5120326;28;20031;-75
2022/09/24 08:37:10;;;;;;;63.70;30.27;;;12.90;99.90;;;;;;5119687;28;20027;-75
2022/09/24 08:39:36;;;;;;;57.30;29.13;;;12.90;99.90;;;;;;5120534;28;20020;-73
2022/09/24 08:42:12;;;;;;;61.67;29.40;;;12.90;99.90;;;;;;5121196;28;20093;-76
2022/09/24 08:47:41;;;;;;;58.53;27.90;;;13.00;99.90;;;;;;5123512;28;20080;-75
2022/09/24 08:50:14;;;;;;;66.85;28.02;;;13.00;99.90;;;;;;5119616;28;20034;-75
2022/09/24 08:52:57;;;;;;;51.50;25.33;;;13.00;99.90;;;;;;5121464;28;20020;-73
2022/09/24 08:55:32;;;;;;;57.00;27.10;;;13.00;99.90;;;;;;5117376;28;20039;-75
2022/09/24 08:58:16;;;;;;;58.75;25.67;;;13.00;99.90;;;;;;5120196;28;20027;-74
2022/09/24 09:00:56;;;;;;;54.33;26.47;;;13.00;99.90;;;;;;5123523;28;20027;-74
2022/09/24 09:03:41;;;;;;;59.72;26.92;;;13.10;99.90;;;;;;5121802;27;20059;-75
2022/09/24 09:06:13;;;;;;;55.85;25.45;;;13.10;99.90;;;;;;5122808;28;20023;-76
2022/09/24 09:09:10;;;;;;;47.42;24.77;;;13.10;99.90;;;;;;5122251;28;20027;-77
2022/09/24 09:11:38;;;;;;;52.13;25.27;;;13.10;99.90;;;;;;5112323;28;20397;-76
2022/09/24 09:14:24;;;;;;;53.45;25.85;;;13.10;99.90;;;;;;5120926;28;20471;-76
2022/09/24 09:17:00;;;;;;;57.53;24.25;;;13.10;99.90;;;;;;5122562;28;20035;-75
2022/09/24 09:19:32;;;;;;;61.45;27.80;;;13.10;99.90;;;;;;5121445;28;20020;-74
2022/09/24 09:22:16;;;;;;;58.83;25.00;;;13.20;99.90;;;;;;5121057;28;20114;-77
2022/09/24 09:24:50;;;;;;;56.83;25.92;;;13.20;99.90;;;;;;5122209;28;20126;-77
2022/09/24 09:27:17;;;;;;;53.00;24.45;;;13.20;99.90;;;;;;5121945;28;20035;-77
2022/09/24 09:29:48;;;;;;;46.72;25.73;;;13.20;99.90;;;;;;5120609;28;20031;-77
2022/09/24 09:32:37;;;;;;;55.55;24.35;;;13.20;99.90;;;;;;5119782;28;20055;-77
2022/09/24 09:35:20;;;;;;;50.40;24.27;;;13.20;99.90;;;;;;5117972;28;20042;-77
2022/09/24 09:38:08;;;;;;;52.10;25.20;;;13.20;99.90;;;;;;5119889;28;20054;-77
2022/09/24 09:40:36;;;;;;;53.65;24.98;;;13.20;99.90;;;;;;5122285;28;20047;-76
2022/09/24 09:43:08;;;;;;;50.67;23.55;;;13.20;99.90;;;;;;5121591;28;20107;-77
2022/09/24 09:45:52;;;;;;;48.75;23.88;;;13.20;99.90;;;;;;5120921;28;20037;-78
2022/09/24 09:48:21;;;;;;;49.70;22.50;;;13.20;99.90;;;;;;5122632;28;20024;-77
2022/09/24 09:50:52;;;;;;;51.35;24.23;;;13.20;99.90;;;;;;5114876;28;20027;-77
2022/09/24 09:53:20;;;;;;;50.92;23.27;;;13.20;99.90;;;;;;5121618;28;20040;-78
2022/09/24 09:56:06;;;;;;;54.17;24.48;;;13.30;99.90;;;;;;5118605;28;21001;-77
2022/09/24 09:58:51;;;;;;;55.72;25.88;;;13.30;99.90;;;;;;5119681;28;20110;-76
2022/09/24 10:01:17;;;;;;;59.03;25.95;;;13.30;99.90;;;;;;5118350;28;20020;-77
2022/09/24 10:03:43;;;;;;;47.58;23.50;;;13.30;99.90;;;;;;5118930;28;20073;-74
2022/09/24 10:06:11;;;;;;;51.25;24.25;;;13.30;99.90;;;;;;5122605;28;20075;-80
2022/09/24 10:08:37;;;;;;;49.13;24.33;;;13.40;99.90;;;;;;5121042;28;20104;-76
2022/09/24 10:11:03;;;;;;;48.13;24.77;;;13.40;99.90;;;;;;5120144;28;20023;-76
2022/09/24 10:13:32;;;;;;;51.42;25.00;;;13.40;99.90;;;;;;5121488;28;20039;-79
2022/09/24 10:16:00;;;;;;;52.17;24.33;;;13.40;99.90;;;;;;5120934;28;20032;-78
2022/09/24 10:18:48;;;;;;;60.70;26.33;;;13.40;99.90;;;;;;5121072;27;20032;-76
2022/09/24 10:21:34;;;;;;;62.88;27.27;;;13.40;99.90;;;;;;5118914;28;20027;-78
2022/09/24 10:24:07;;;;;;;61.47;26.98;;;13.40;99.90;;;;;;5118261;28;20043;-78
2022/09/24 10:26:39;;;;;;;64.63;28.02;;;13.40;99.90;;;;;;5120539;28;20039;-77
2022/09/24 10:31:56;;;;;;;58.03;26.65;;;13.40;99.90;;;;;;5121235;28;20035;-77
2022/09/24 10:34:25;;;;;;;60.20;26.90;;;13.40;99.90;;;;;;5120623;28;20031;-77
2022/09/24 10:37:14;;;;;;;55.85;27.48;;;13.40;99.90;;;;;;5120559;28;20482;-76
2022/09/24 10:39:40;;;;;;;58.45;25.98;;;13.40;99.90;;;;;;5115230;28;20035;-76
2022/09/24 10:42:21;;;;;;;50.92;26.88;;;13.30;99.90;;;;;;5119343;28;20044;-76
2022/09/24 10:44:47;;;;;;;51.03;26.65;;;13.40;99.90;;;;;;5117143;28;20485;-76
2022/09/24 10:47:26;;;;;;;60.50;26.90;;;13.40;99.90;;;;;;5118632;28;20043;-78
2022/09/24 10:50:24;;;;;;;54.80;26.00;;;13.30;99.90;;;;;;5118497;28;20042;-78
2022/09/24 10:52:55;;;;;;;58.72;25.35;;;13.30;99.90;;;;;;5120609;28;20031;-77
2022/09/24 10:55:36;;;;;;;58.40;26.88;;;13.30;99.90;;;;;;5120320;28;20035;-77
2022/09/24 10:58:21;;;;;;;48.35;26.20;;;13.40;99.90;;;;;;5120949;28;20027;-78
2022/09/24 11:01:14;;;;;;;56.42;27.27;;;13.40;99.90;;;;;;5120098;28;20039;-76
2022/09/24 11:03:57;;;;;;;59.30;26.75;;;13.40;99.90;;;;;;5120156;28;20038;-75
2022/09/24 11:07:00;;;;;;;51.40;26.45;;;13.40;99.90;;;;;;5119351;28;20027;-76
2022/09/24 11:09:46;;;;;;;50.88;26.38;;;13.40;99.90;;;;;;5121070;28;20052;-76
2022/09/24 11:12:24;;;;;;;56.97;26.38;;;13.40;99.90;;;;;;5120300;28;20075;-76
2022/09/24 11:15:01;;;;;;;66.65;26.33;;;13.40;99.90;;;;;;5120838;28;20053;-76
2022/09/24 11:17:36;;;;;;;55.28;25.77;;;13.50;99.90;;;;;;5119700;28;20399;-77
2022/09/24 11:20:09;;;;;;;57.90;25.90;;;13.50;99.90;;;;;;5120258;28;20028;-77
2022/09/24 11:22:54;;;;;;;51.87;27.47;;;13.50;99.90;;;;;;5119600;28;20026;-78
2022/09/24 11:25:36;;;;;;;56.03;25.10;;;13.50;99.90;;;;;;5120253;28;20118;-76
2022/09/24 11:28:38;;;;;;;57.70;26.02;;;13.60;99.90;;;;;;5119501;28;20170;-77
2022/09/24 11:31:12;;;;;;;65.38;26.77;;;13.60;99.90;;;;;;5120208;28;20047;-77
2022/09/24 11:34:11;;;;;;;53.58;24.40;;;13.70;99.90;;;;;;5118292;28;20027;-77
2022/09/24 11:37:02;;;;;;;56.90;26.25;;;13.70;99.90;;;;;;5120256;28;20036;-78
2022/09/24 11:39:53;;;;;;;62.60;27.27;;;13.80;99.90;;;;;;5119446;28;20119;-76
2022/09/24 11:42:46;;;;;;;52.00;25.27;;;13.80;99.90;;;;;;5115242;28;20412;-76
2022/09/24 11:45:36;;;;;;;43.53;24.08;;;13.80;99.90;;;;;;5118775;28;20035;-78
2022/09/24 11:48:24;;;;;;;55.00;25.27;;;13.80;99.90;;;;;;5119436;28;20023;-78
2022/09/24 11:51:08;;;;;;;50.38;24.10;;;13.80;99.90;;;;;;5118066;28;20024;-76
2022/09/24 11:53:41;;;;;;;49.58;24.48;;;13.80;99.90;;;;;;5118357;28;20051;-76
2022/09/24 11:56:19;;;;;;;60.70;27.80;;;13.80;99.90;;;;;;5119140;28;20028;-77
2022/09/24 11:58:59;;;;;;;62.78;27.95;;;13.80;99.90;;;;;;5113366;28;20067;-74
2022/09/24 12:01:34;;;;;;;55.42;26.40;;;13.90;99.90;;;;;;5118121;28;21044;-73
2022/09/24 12:04:21;;;;;;;53.83;27.20;;;13.70;99.90;;;;;;5113505;28;20036;-75
2022/09/24 12:07:04;;;;;;;59.45;27.58;;;13.80;99.90;;;;;;5115933;28;20066;-76
2022/09/24 12:09:35;;;;;;;62.10;29.63;;;13.80;99.90;;;;;;5120102;28;20035;-75
2022/09/24 12:12:19;;;;;;;47.85;25.33;;;13.90;99.90;;;;;;5117461;28;20117;-75
2022/09/24 12:14:56;;;;;;;47.83;23.92;;;13.90;99.90;;;;;;5117676;28;20099;-75
2022/09/24 12:17:42;;;;;;;49.22;24.63;;;13.90;99.90;;;;;;5122320;28;20032;-74
2022/09/24 12:20:45;;;;;;;50.47;24.80;;;13.90;99.90;;;;;;5120965;28;20030;-76
2022/09/24 12:23:17;;;;;;;43.42;23.65;;;13.90;99.90;;;;;;5121299;28;20219;-77
2022/09/24 12:25:45;;;;;;;47.60;22.45;;;13.90;99.90;;;;;;5123232;28;20110;-76
2022/09/24 12:32:52;;;;;;;46.95;21.42;;;13.90;99.90;;;;;;5121456;28;20031;-73
2022/09/24 12:34:00;;;;;;;41.40;22.45;;;13.90;99.90;;;;;;5122271;28;20057;-75
2022/09/24 12:36:41;;;;;;;42.42;22.77;;;13.90;99.90;;;;;;5122704;28;20606;-75
2022/09/24 12:39:11;;;;;;;46.03;23.35;;;13.80;99.90;;;;;;5120375;28;20024;-75
2022/09/24 12:41:43;;;;;;;49.83;22.90;;;13.80;99.90;;;;;;5120124;28;20024;-76
2022/09/24 12:44:09;;;;;;;48.92;24.80;;;13.90;99.90;;;;;;5120697;28;20031;-74
2022/09/24 12:46:41;;;;;;;50.47;22.95;;;13.90;99.90;;;;;;5115780;28;20031;-74
2022/09/24 12:49:35;;;;;;;56.20;25.40;;;13.90;99.90;;;;;;5117708;28;20031;-76
2022/09/24 12:52:16;;;;;;;53.38;24.08;;;14.00;99.90;;;;;;5120309;28;20032;-75
2022/09/24 12:54:43;;;;;;;64.90;27.73;;;14.10;99.90;;;;;;5122389;28;20027;-75
2022/09/24 12:57:21;;;;;;;45.65;20.75;;;14.20;99.90;;;;;;5123384;28;20028;-76
2022/09/24 12:59:58;;;;;;;51.83;22.80;;;14.30;99.90;;;;;;5123716;28;20028;-74
2022/09/24 13:02:31;;;;;;;46.22;19.83;;;14.40;99.90;;;;;;5121658;28;20353;-74
2022/09/24 13:05:00;;;;;;;40.20;19.77;;;14.40;99.90;;;;;;5121641;28;20044;-74